Time;durP1;ratioP1;P1;durP2;ratioP2;P2;SDS_P1;SDS_P2;PMS_P1;PMS_P2;Temp;Humidity;BMP_temperature;BMP_pressure;BME280_temperature;BME280_humidity;BME280_pressure;Samples;Min_cycle;Max_cycle;Signal;HPM_P1;HPM_P2
2023/05/20 00:00:55;;;;;;;0.00;0.00;;;;;;;9.96;85.84;101462.94;6245220;22;20005;-79
2023/05/20 00:03:28;;;;;;;0.00;0.00;;;;;;;9.93;86.15;101455.19;6248094;22;20020;-79
2023/05/20 00:05:54;;;;;;;0.00;0.00;;;;;;;9.95;86.08;101463.97;6144508;23;20018;-76
2023/05/20 00:08:21;;;;;;;0.00;0.00;;;;;;;10.05;86.00;101489.91;6147815;23;20009;-77
2023/05/20 00:10:49;;;;;;;0.00;0.00;;;;;;;9.88;85.85;101465.19;6116306;23;20010;-77
2023/05/20 00:13:15;;;;;;;0.00;0.00;;;;;;;9.85;86.15;101469.19;6277699;22;20009;-76
2023/05/20 00:15:40;;;;;;;0.00;0.00;;;;;;;9.86;85.88;101476.34;6248874;22;20070;-76
2023/05/20 00:18:08;;;;;;;0.00;0.00;;;;;;;9.87;85.90;101483.47;6119939;23;20039;-77
2023/05/20 00:20:37;;;;;;;0.00;0.00;;;;;;;9.64;86.07;101456.09;6121695;23;20021;-77
2023/05/20 00:23:02;;;;;;;0.00;0.00;;;;;;;9.62;86.28;101459.06;6114200;23;20025;-75
2023/05/20 00:25:30;;;;;;;0.00;0.00;;;;;;;9.78;86.44;101484.88;6146012;23;20324;-74
2023/05/20 00:27:55;;;;;;;0.00;0.00;;;;;;;9.65;86.53;101468.69;6119692;23;20499;-75
2023/05/20 00:30:21;;;;;;;0.00;0.00;;;;;;;9.58;86.93;101463.34;6142807;23;20033;-76
2023/05/20 00:32:46;;;;;;;0.00;0.00;;;;;;;9.54;86.64;101459.41;6246396;22;20084;-77
2023/05/20 00:35:12;;;;;;;0.00;0.00;;;;;;;9.49;86.71;101451.94;6118219;23;20367;-76
2023/05/20 00:37:38;;;;;;;0.00;0.00;;;;;;;9.60;86.95;101493.97;6148226;23;20009;-78
2023/05/20 00:40:04;;;;;;;0.00;0.00;;;;;;;9.42;87.08;101462.94;6120429;22;20014;-77
2023/05/20 00:42:32;;;;;;;0.00;0.00;;;;;;;9.32;87.45;101454.50;6144751;23;20002;-76
2023/05/20 00:44:59;;;;;;;0.00;0.00;;;;;;;9.32;87.07;101461.84;6145070;23;20310;-76
2023/05/20 00:47:31;;;;;;;0.00;0.00;;;;;;;9.32;87.66;101470.03;6143299;23;20456;-77
2023/05/20 00:49:57;;;;;;;0.00;0.00;;;;;;;9.14;87.52;101457.25;6144478;23;20013;-75
2023/05/20 00:52:24;;;;;;;0.00;0.00;;;;;;;9.29;87.31;101484.97;6141413;23;20013;-77
2023/05/20 00:54:50;;;;;;;0.00;0.00;;;;;;;9.19;87.30;101466.41;6144918;23;20027;-77
2023/05/20 00:57:17;;;;;;;0.00;0.00;;;;;;;9.26;87.55;101482.72;6139903;23;20013;-76
2023/05/20 00:59:48;;;;;;;0.00;0.00;;;;;;;9.00;88.32;101451.16;6144853;23;20004;-77
2023/05/20 01:02:14;;;;;;;0.00;0.00;;;;;;;9.03;88.36;101456.16;6140703;23;20006;-78
2023/05/20 01:04:47;;;;;;;0.00;0.00;;;;;;;9.12;88.35;101476.59;6221913;23;20086;-78
2023/05/20 01:07:15;;;;;;;0.00;0.00;;;;;;;8.97;88.63;101457.91;6267384;22;20309;-76
2023/05/20 01:09:41;;;;;;;0.00;0.00;;;;;;;8.85;88.20;101444.22;6142631;23;20032;-77
2023/05/20 01:12:34;;;;;;;0.00;0.00;;;;;;;8.90;88.75;101451.69;6144649;23;20009;-76
2023/05/20 01:15:15;;;;;;;0.00;0.00;;;;;;;8.93;88.73;101461.34;6143870;23;20077;-76
2023/05/20 01:17:45;;;;;;;0.00;0.00;;;;;;;8.84;88.87;101448.00;6139827;23;20006;-77
2023/05/20 01:20:14;;;;;;;0.00;0.00;;;;;;;8.84;88.88;101448.00;6145210;23;20084;-77
2023/05/20 01:22:52;;;;;;;0.00;0.00;;;;;;;8.85;89.30;101446.94;6142460;23;20016;-77
2023/05/20 01:25:27;;;;;;;0.10;0.10;;;;;;;8.85;88.92;101448.84;6118193;23;20771;-77
2023/05/20 01:27:54;;;;;;;0.00;0.00;;;;;;;8.80;89.19;101441.31;6238992;22;20014;-77
2023/05/20 01:30:21;;;;;;;0.00;0.00;;;;;;;8.85;89.24;101448.84;6145190;23;20001;-77
2023/05/20 01:33:01;;;;;;;0.00;0.00;;;;;;;8.82;89.26;101450.13;6146383;23;20002;-75
2023/05/20 01:35:28;;;;;;;0.00;0.00;;;;;;;8.63;89.73;101423.94;6139629;23;19994;-76
2023/05/20 01:37:54;;;;;;;0.00;0.00;;;;;;;8.63;89.79;101434.81;6145534;23;20005;-75
2023/05/20 01:40:26;;;;;;;0.00;0.00;;;;;;;8.70;89.57;101451.94;6140536;23;20021;-75
2023/05/20 01:42:54;;;;;;;0.00;0.00;;;;;;;8.61;89.59;101436.97;6245202;22;20055;-76
2023/05/20 01:45:24;;;;;;;0.00;0.00;;;;;;;8.48;90.05;101427.88;6140251;23;20102;-77
2023/05/20 01:47:50;;;;;;;0.00;0.00;;;;;;;8.50;90.19;101436.66;6147484;23;20513;-78
2023/05/20 01:50:16;;;;;;;0.00;0.00;;;;;;;8.46;90.48;101438.19;6141016;23;20005;-78
2023/05/20 01:52:41;;;;;;;0.00;0.00;;;;;;;8.47;90.37;101448.03;6120009;23;20017;-76
2023/05/20 01:55:10;;;;;;;0.03;0.03;;;;;;;8.28;90.56;101416.31;6121289;23;20059;-78
2023/05/20 01:57:38;;;;;;;0.00;0.00;;;;;;;8.42;90.91;101444.28;6244311;22;20013;-76
2023/05/20 02:00:05;;;;;;;0.00;0.00;;;;;;;8.35;91.01;101441.63;6143685;23;20009;-76
2023/05/20 02:02:30;;;;;;;0.00;0.00;;;;;;;8.38;90.18;101438.44;6221864;23;20340;-77
2023/05/20 02:04:58;;;;;;;0.00;0.00;;;;;;;8.23;90.92;101436.09;6146828;22;20021;-76
2023/05/20 02:07:23;;;;;;;0.00;0.00;;;;;;;8.19;91.27;101429.41;6117572;23;20037;-75
2023/05/20 02:09:48;;;;;;;0.00;0.00;;;;;;;8.16;91.24;101430.72;6249899;22;20040;-77
2023/05/20 02:12:19;;;;;;;0.00;0.00;;;;;;;8.08;91.40;101433.72;6121635;23;20010;-76
2023/05/20 02:14:48;;;;;;;0.00;0.00;;;;;;;8.05;91.62;101434.19;6146229;23;20420;-75
2023/05/20 02:17:15;;;;;;;0.00;0.00;;;;;;;8.04;91.67;101437.94;6146184;23;20013;-74
2023/05/20 02:19:41;;;;;;;0.00;0.00;;;;;;;7.90;91.59;101422.78;6145739;23;20005;-74
2023/05/20 02:22:06;;;;;;;0.00;0.00;;;;;;;7.82;92.18;101416.56;6274378;22;20302;-75
2023/05/20 02:24:32;;;;;;;0.00;0.00;;;;;;;7.80;92.37;101426.84;6120546;23;20055;-74
2023/05/20 02:26:57;;;;;;;0.00;0.00;;;;;;;7.82;92.42;101435.63;6273479;22;20109;-75
2023/05/20 02:29:24;;;;;;;0.00;0.00;;;;;;;7.79;92.62;101440.69;6250108;22;20822;-75
2023/05/20 02:31:52;;;;;;;0.10;0.10;;;;;;;7.63;92.67;101428.47;6248151;22;20016;-75
2023/05/20 02:34:18;;;;;;;0.00;0.00;;;;;;;7.62;92.34;101432.25;6148174;23;20006;-74
2023/05/20 02:36:43;;;;;;;0.00;0.00;;;;;;;7.54;92.52;101430.63;6143825;23;20336;-75
2023/05/20 02:39:09;;;;;;;0.00;0.00;;;;;;;7.56;93.07;101424.97;6147216;23;20017;-73
2023/05/20 02:41:34;;;;;;;0.10;0.10;;;;;;;7.53;92.76;101431.69;6250261;22;20082;-75
2023/05/20 02:43:59;;;;;;;0.00;0.00;;;;;;;7.50;92.85;101437.56;6167103;23;20012;-75
2023/05/20 02:46:28;;;;;;;0.00;0.00;;;;;;;7.38;93.15;101418.41;6250739;22;20332;-75
2023/05/20 02:48:53;;;;;;;0.00;0.00;;;;;;;7.29;93.04;101419.72;6245642;22;20054;-76
2023/05/20 02:51:18;;;;;;;0.00;0.00;;;;;;;7.37;93.27;101437.66;6273717;22;20130;-74
2023/05/20 02:53:45;;;;;;;0.03;0.03;;;;;;;7.20;93.44;101419.16;6275720;22;20273;-76
2023/05/20 02:56:10;;;;;;;0.08;0.08;;;;;;;7.21;93.38;101428.13;6139099;23;20012;-76
2023/05/20 02:58:36;;;;;;;0.05;0.05;;;;;;;7.16;93.74;101429.63;6248503;22;20359;-77
2023/05/20 03:01:02;;;;;;;0.00;0.00;;;;;;;7.21;93.29;101439.84;6143914;23;20070;-77
2023/05/20 03:03:30;;;;;;;0.10;0.10;;;;;;;7.02;94.13;101417.16;6140875;23;20032;-76
2023/05/20 03:05:58;;;;;;;0.05;0.05;;;;;;;6.97;93.46;101417.00;6120085;23;20424;-77
2023/05/20 03:08:23;;;;;;;0.00;0.00;;;;;;;7.05;93.99;101430.31;6141658;23;20054;-76
2023/05/20 03:10:51;;;;;;;0.00;0.00;;;;;;;6.82;93.98;101393.63;6119547;23;20374;-78
2023/05/20 03:13:17;;;;;;;0.00;0.00;;;;;;;6.98;94.33;101419.50;6142305;23;20020;-77
2023/05/20 03:15:45;;;;;;;0.00;0.00;;;;;;;7.01;93.94;101428.25;6142745;23;19998;-78
2023/05/20 03:18:13;;;;;;;0.00;0.00;;;;;;;7.04;93.67;101427.81;6143837;23;20004;-78
2023/05/20 03:20:41;;;;;;;0.00;0.00;;;;;;;6.87;93.34;101403.84;6114502;23;20002;-78
2023/05/20 03:23:09;;;;;;;0.00;0.00;;;;;;;6.91;93.50;101413.25;6221251;23;20005;-76
2023/05/20 03:25:39;;;;;;;0.00;0.00;;;;;;;6.89;93.12;101409.94;6116382;23;20977;-77
2023/05/20 03:28:05;;;;;;;0.00;0.00;;;;;;;6.91;93.13;101407.00;6143958;23;20059;-76
2023/05/20 03:30:31;;;;;;;0.00;0.00;;;;;;;6.87;94.20;101408.47;6141079;23;20010;-75
2023/05/20 03:33:01;;;;;;;0.00;0.00;;;;;;;6.84;93.25;101408.91;6145023;23;20014;-76
2023/05/20 03:35:27;;;;;;;0.00;0.00;;;;;;;6.74;93.62;101391.16;6144119;23;20001;-75
2023/05/20 03:37:52;;;;;;;0.00;0.00;;;;;;;6.72;93.36;101382.41;6139132;23;20070;-78
2023/05/20 03:40:22;;;;;;;0.00;0.00;;;;;;;6.69;93.54;101380.13;6144114;23;20014;-78
2023/05/20 03:42:49;;;;;;;0.10;0.10;;;;;;;6.74;93.81;101391.16;6139844;23;20016;-77
2023/05/20 03:45:15;;;;;;;0.00;0.00;;;;;;;6.78;93.77;101392.41;6146878;23;20035;-77
2023/05/20 03:47:40;;;;;;;0.00;0.00;;;;;;;6.69;93.91;101382.84;6139919;23;20017;-76
2023/05/20 03:50:11;;;;;;;0.00;0.00;;;;;;;6.70;93.81;101379.06;6144174;23;20313;-77
2023/05/20 03:52:37;;;;;;;0.00;0.00;;;;;;;6.85;93.70;101402.41;6141107;23;20501;-76
2023/05/20 03:55:03;;;;;;;0.00;0.00;;;;;;;6.67;93.50;101379.47;6143853;22;20048;-77
2023/05/20 03:57:29;;;;;;;0.10;0.10;;;;;;;6.76;94.07;101402.66;6248619;22;20044;-76
2023/05/20 03:59:56;;;;;;;0.00;0.00;;;;;;;6.77;93.42;101398.88;6141969;23;20001;-78
2023/05/20 04:02:24;;;;;;;0.00;0.00;;;;;;;6.59;93.32;101380.56;6142794;23;20032;-77
2023/05/20 04:04:51;;;;;;;0.00;0.00;;;;;;;6.61;93.45;101396.66;6241756;22;20439;-76
2023/05/20 04:07:17;;;;;;;0.00;0.00;;;;;;;6.55;93.98;101387.47;6144428;23;20328;-76
2023/05/20 04:09:43;;;;;;;0.00;0.00;;;;;;;6.58;93.40;101397.91;6244307;22;20010;-77
2023/05/20 04:12:12;;;;;;;0.00;0.00;;;;;;;6.56;93.89;101397.31;6144675;22;20059;-76
2023/05/20 04:14:40;;;;;;;0.00;0.00;;;;;;;6.58;93.79;101397.09;6145006;23;20436;-76
2023/05/20 04:17:09;;;;;;;0.00;0.00;;;;;;;6.42;93.53;101363.09;6240264;22;20009;-76
2023/05/20 04:19:35;;;;;;;0.00;0.00;;;;;;;6.63;93.40;101410.88;6144441;22;20009;-77
2023/05/20 04:22:00;;;;;;;0.00;0.00;;;;;;;6.45;93.63;101374.38;6139729;23;20013;-77
2023/05/20 04:24:29;;;;;;;0.10;0.10;;;;;;;6.50;93.80;101392.75;6144398;23;20443;-77
2023/05/20 04:26:54;;;;;;;0.00;0.00;;;;;;;6.45;93.27;101379.81;6139702;23;20028;-77
2023/05/20 04:29:35;;;;;;;0.00;0.00;;;;;;;6.42;93.65;101376.66;6255346;22;20013;-78
2023/05/20 04:32:02;;;;;;;0.00;0.00;;;;;;;6.55;93.98;101403.78;6249015;22;20012;-78
2023/05/20 04:34:33;;;;;;;0.00;0.00;;;;;;;6.47;93.65;101388.56;6250755;22;20612;-76
2023/05/20 04:37:01;;;;;;;0.00;0.00;;;;;;;6.55;93.56;101406.50;6119486;23;20479;-76
2023/05/20 04:39:29;;;;;;;0.00;0.00;;;;;;;6.60;93.55;101405.84;6145649;23;20051;-78
2023/05/20 04:41:55;;;;;;;0.00;0.00;;;;;;;6.60;93.79;101389.53;6248160;22;20031;-76
2023/05/20 04:44:25;;;;;;;0.00;0.00;;;;;;;6.60;93.21;101381.41;6145720;23;20429;-77
2023/05/20 04:47:02;;;;;;;0.00;0.00;;;;;;;6.76;92.84;101402.66;6145232;23;20059;-76
2023/05/20 04:49:30;;;;;;;0.00;0.00;;;;;;;6.71;92.99;101388.88;6240371;22;20033;-77
2023/05/20 04:51:58;;;;;;;0.00;0.00;;;;;;;6.76;93.27;101388.22;6147116;23;20034;-78
2023/05/20 04:54:25;;;;;;;0.00;0.00;;;;;;;6.96;92.86;101409.88;6122437;23;20021;-76
2023/05/20 04:56:51;;;;;;;0.10;0.10;;;;;;;6.73;92.45;101367.75;6144106;23;20013;-76
2023/05/20 04:59:16;;;;;;;0.00;0.00;;;;;;;6.85;92.04;101375.22;6141364;23;20482;-76
2023/05/20 05:01:42;;;;;;;0.00;0.00;;;;;;;6.85;92.39;101370.63;6119445;22;20746;-79
2023/05/20 05:04:08;;;;;;;0.00;0.00;;;;;;;7.13;92.48;101394.69;6143122;23;20363;-77
2023/05/20 05:06:36;;;;;;;0.00;0.00;;;;;;;7.05;91.99;101375.91;6140890;23;20015;-77
2023/05/20 05:09:12;;;;;;;;;;;;;;;;;;;;;
2023/05/20 05:11:38;;;;;;;0.00;0.00;;;;;;;7.14;91.05;101390.94;6141689;23;20100;-77
2023/05/20 05:14:03;;;;;;;0.00;0.00;;;;;;;7.02;91.93;101376.34;6144838;22;20080;-78
2023/05/20 05:16:31;;;;;;;0.00;0.00;;;;;;;7.18;91.52;101390.50;6142223;23;20004;-76
2023/05/20 05:18:59;;;;;;;0.00;0.00;;;;;;;7.30;91.56;101394.16;6248383;22;20009;-78
2023/05/20 05:21:27;;;;;;;0.00;0.00;;;;;;;7.30;90.90;101395.03;6275120;22;20420;-78
2023/05/20 05:23:52;;;;;;;0.00;0.00;;;;;;;7.27;91.57;101389.16;6143282;23;20013;-77
2023/05/20 05:26:18;;;;;;;0.00;0.00;;;;;;;7.29;91.31;101392.53;6250755;22;20006;-77
2023/05/20 05:28:48;;;;;;;0.00;0.00;;;;;;;7.32;91.18;101392.91;6148071;23;20150;-78
2023/05/20 05:31:14;;;;;;;0.00;0.00;;;;;;;7.52;91.08;101413.69;6248951;22;20093;-80
2023/05/20 05:33:42;;;;;;;0.00;0.00;;;;;;;7.54;91.32;101406.13;6148062;23;20033;-78
2023/05/20 05:36:07;;;;;;;0.10;0.10;;;;;;;7.71;90.83;101411.88;6145334;23;20436;-78
2023/05/20 05:38:37;;;;;;;0.00;0.00;;;;;;;7.74;90.58;101408.69;6122441;23;20033;-78
2023/05/20 05:41:10;;;;;;;0.00;0.00;;;;;;;7.73;90.44;101404.31;6146838;23;20096;-79
2023/05/20 05:43:38;;;;;;;0.00;0.00;;;;;;;7.73;90.62;101404.31;6147918;23;20017;-78
2023/05/20 05:46:04;;;;;;;0.00;0.00;;;;;;;7.81;90.21;101409.47;6227331;23;20013;-77
2023/05/20 05:48:30;;;;;;;0.00;0.00;;;;;;;7.82;90.18;101419.28;6278023;22;20009;-77
2023/05/20 05:50:55;;;;;;;0.00;0.00;;;;;;;7.78;90.54;101407.19;6148192;23;20008;-78
2023/05/20 05:53:23;;;;;;;0.00;0.00;;;;;;;7.85;90.59;101407.13;6251925;22;20010;-78
2023/05/20 05:55:49;;;;;;;0.00;0.00;;;;;;;7.90;90.01;101398.28;6141788;23;20063;-79
2023/05/20 05:58:22;;;;;;;0.10;0.10;;;;;;;8.13;89.72;101425.72;6144649;23;20322;-78
2023/05/20 06:00:53;;;;;;;0.00;0.00;;;;;;;8.08;89.51;101403.75;6119848;23;20085;-77
2023/05/20 06:03:18;;;;;;;0.00;0.00;;;;;;;8.14;89.92;101399.31;6140929;23;20103;-77
2023/05/20 06:05:49;;;;;;;0.10;0.10;;;;;;;8.20;89.83;101392.94;6223617;23;20006;-78
2023/05/20 06:08:14;;;;;;;0.00;0.00;;;;;;;8.31;89.31;101400.38;6143445;23;20009;-78
2023/05/20 06:10:42;;;;;;;0.00;0.00;;;;;;;8.37;89.67;101399.44;6277169;22;20487;-78
2023/05/20 06:13:08;;;;;;;0.10;0.10;;;;;;;8.46;89.05;101396.47;6144883;23;20006;-80
2023/05/20 06:15:35;;;;;;;0.00;0.00;;;;;;;8.56;89.21;101397.59;6144721;23;20004;-77
2023/05/20 06:18:00;;;;;;;0.00;0.00;;;;;;;8.71;88.83;101393.63;6222458;23;20009;-77
2023/05/20 06:20:25;;;;;;;0.00;0.00;;;;;;;8.96;88.22;101404.41;6217854;23;20099;-78
2023/05/20 06:22:51;;;;;;;0.00;0.00;;;;;;;8.99;88.49;101378.56;6276381;22;20709;-78
2023/05/20 06:25:16;;;;;;;0.00;0.00;;;;;;;9.30;87.55;101393.00;6243942;22;20013;-77
2023/05/20 06:27:42;;;;;;;0.10;0.10;;;;;;;9.42;87.12;101399.34;6142827;23;20024;-76
2023/05/20 06:30:07;;;;;;;0.00;0.00;;;;;;;9.67;86.87;101411.97;6144138;23;20089;-78
2023/05/20 06:32:33;;;;;;;0.00;0.00;;;;;;;9.76;85.73;101410.53;6221906;23;20009;-76
2023/05/20 06:34:58;;;;;;;0.00;0.00;;;;;;;9.86;85.50;101416.22;6274803;22;20100;-78
2023/05/20 06:37:27;;;;;;;0.00;0.00;;;;;;;9.82;85.34;101382.25;6244445;22;20008;-79
2023/05/20 06:39:55;;;;;;;0.00;0.00;;;;;;;9.94;84.60;101394.03;6246947;22;20455;-77
2023/05/20 06:42:26;;;;;;;0.00;0.00;;;;;;;10.09;84.27;101392.69;6138748;23;20018;-78
2023/05/20 06:51:44;;;;;;;0.00;0.00;;;;;;;10.32;82.20;101361.75;6129592;23;20006;-80
2023/05/20 06:54:12;;;;;;;0.00;0.00;;;;;;;10.45;80.98;101361.53;6141290;23;20004;-80
2023/05/20 06:56:48;;;;;;;;;;;;;;;;;;;;;
2023/05/20 06:59:16;;;;;;;0.00;0.00;;;;;;;10.73;80.01;101380.94;6142714;23;20085;-79
2023/05/20 07:01:41;;;;;;;0.00;0.00;;;;;;;10.70;79.35;101348.59;6144067;23;20677;-79
2023/05/20 07:04:09;;;;;;;0.00;0.00;;;;;;;10.87;78.88;101360.41;6119833;23;20112;-80
2023/05/20 07:06:44;;;;;;;0.00;0.00;;;;;;;10.96;78.40;101356.19;6141462;23;20761;-84
2023/05/20 07:09:09;;;;;;;0.00;0.00;;;;;;;11.16;76.84;101354.91;6145258;23;20005;-82
2023/05/20 07:11:35;;;;;;;0.00;0.00;;;;;;;11.33;77.04;101363.97;6271268;22;20017;-81
2023/05/20 07:14:00;;;;;;;0.00;0.00;;;;;;;11.43;76.24;101367.94;6222287;23;20041;-80
2023/05/20 07:16:26;;;;;;;0.00;0.00;;;;;;;11.58;74.54;101365.47;6243860;22;20017;-77
2023/05/20 07:18:51;;;;;;;0.00;0.00;;;;;;;11.87;74.61;101384.53;6142458;23;20006;-77
2023/05/20 07:21:17;;;;;;;0.00;0.00;;;;;;;11.94;73.54;101373.44;6272376;22;20336;-76
2023/05/20 07:23:52;;;;;;;0.00;0.00;;;;;;;12.20;73.12;101382.84;6163993;23;20022;-76
2023/05/20 07:26:17;;;;;;;0.00;0.00;;;;;;;12.10;72.20;101355.28;6143738;23;20100;-77
2023/05/20 07:28:44;;;;;;;0.00;0.00;;;;;;;12.22;71.43;101359.56;6139670;23;20083;-78
2023/05/20 07:31:10;;;;;;;0.00;0.00;;;;;;;12.44;71.51;101377.09;6273665;22;20010;-77
2023/05/20 07:33:44;;;;;;;0.00;0.00;;;;;;;12.52;71.23;101357.47;6142032;23;20447;-77
2023/05/20 07:36:10;;;;;;;0.00;0.00;;;;;;;12.67;70.40;101360.38;6144158;23;19997;-76
2023/05/20 07:38:38;;;;;;;0.00;0.00;;;;;;;12.69;69.96;101347.25;6167783;23;20020;-76
2023/05/20 07:41:04;;;;;;;0.00;0.00;;;;;;;12.89;68.79;101362.25;6143449;23;20036;-75
2023/05/20 07:43:36;;;;;;;0.00;0.00;;;;;;;12.96;68.10;101354.63;6144227;23;20009;-75
2023/05/20 07:46:03;;;;;;;0.00;0.00;;;;;;;13.27;67.92;101380.50;6142299;23;20005;-76
2023/05/20 07:48:28;;;;;;;0.00;0.00;;;;;;;13.25;67.84;101362.59;6144451;23;20009;-74
2023/05/20 07:50:56;;;;;;;0.00;0.00;;;;;;;13.43;67.91;101373.25;6165843;23;20020;-75
2023/05/20 07:53:32;;;;;;;0.00;0.00;;;;;;;13.59;67.43;101359.59;6274092;22;20706;-75
2023/05/20 07:55:58;;;;;;;0.00;0.00;;;;;;;13.72;65.90;101355.56;6236666;22;20012;-78
2023/05/20 07:58:23;;;;;;;0.00;0.00;;;;;;;13.88;65.26;101359.25;6145988;23;20014;-74
2023/05/20 08:00:49;;;;;;;0.00;0.00;;;;;;;13.95;64.85;101365.34;6150392;22;19997;-77
2023/05/20 08:03:22;;;;;;;0.00;0.00;;;;;;;13.95;64.78;101357.91;6145943;23;20029;-79
2023/05/20 08:05:48;;;;;;;0.00;0.00;;;;;;;14.05;63.88;101362.66;6250112;22;20013;-78
2023/05/20 08:08:18;;;;;;;0.00;0.00;;;;;;;14.16;63.78;101362.72;6275697;22;20097;-78
2023/05/20 08:10:44;;;;;;;0.00;0.00;;;;;;;14.16;63.32;101343.47;6119145;23;20507;-77
2023/05/20 08:13:09;;;;;;;0.00;0.00;;;;;;;14.11;62.55;101334.09;6120771;23;20092;-78
2023/05/20 08:15:35;;;;;;;0.00;0.00;;;;;;;14.32;62.32;101350.69;6146261;23;20013;-77
2023/05/20 08:18:01;;;;;;;0.00;0.00;;;;;;;14.39;62.69;101344.94;6145817;23;20002;-77
2023/05/20 08:20:31;;;;;;;0.00;0.00;;;;;;;14.54;62.85;101347.72;6148084;23;20016;-78
2023/05/20 08:22:59;;;;;;;0.00;0.00;;;;;;;14.57;62.34;101329.84;6147675;23;20013;-78
2023/05/20 08:25:29;;;;;;;0.00;0.00;;;;;;;14.66;62.17;101333.78;6148873;23;20010;-75
2023/05/20 08:28:25;;;;;;;;;;;;;;;;;;;;;
2023/05/20 08:30:50;;;;;;;0.00;0.00;;;;;;;14.99;61.47;101326.13;6152602;23;20373;-81
2023/05/20 08:34:06;;;;;;;0.00;0.00;;;;;;;15.37;61.34;101365.25;6149526;23;19997;-79
2023/05/20 08:36:35;;;;;;;0.00;0.00;;;;;;;15.46;60.63;101347.09;6149193;23;20010;-79
2023/05/20 08:39:06;;;;;;;0.00;0.00;;;;;;;15.51;59.23;101338.78;6150848;23;20002;-80
2023/05/20 08:41:32;;;;;;;0.00;0.00;;;;;;;15.84;59.42;101353.13;6143731;23;20014;-80
2023/05/20 08:44:01;;;;;;;0.00;0.00;;;;;;;16.10;59.23;101368.78;6120928;23;20050;-79
2023/05/20 08:50:18;;;;;;;0.00;0.00;;;;;;;16.61;57.63;101371.34;6242752;23;20043;-79
2023/05/20 10:51:20;;;;;;;0.00;0.00;;;;;;;28.67;33.59;101274.97;6145229;23;20092;-79
2023/05/20 10:53:54;;;;;;;0.00;0.00;;;;;;;29.72;32.19;101277.78;6119651;23;20014;-78
2023/05/20 10:56:25;;;;;;;0.00;0.00;;;;;;;30.36;29.99;101289.25;6145570;23;20005;-78
2023/05/20 10:58:55;;;;;;;0.00;0.00;;;;;;;30.66;28.79;101296.91;6122002;23;20051;-78
2023/05/20 11:01:25;;;;;;;0.00;0.00;;;;;;;31.39;27.70;101299.38;6096221;23;20006;-79
2023/05/20 11:03:53;;;;;;;0.00;0.00;;;;;;;32.14;26.90;101287.94;6124332;23;20012;-80
2023/05/20 11:06:19;;;;;;;0.00;0.00;;;;;;;32.86;25.76;101284.69;6100422;23;20033;-80
2023/05/20 11:08:45;;;;;;;0.00;0.00;;;;;;;33.58;25.14;101279.97;6148020;23;20013;-81
2023/05/20 11:11:14;;;;;;;0.00;0.00;;;;;;;34.36;24.02;101268.16;6102464;23;20017;-81
2023/05/20 11:13:45;;;;;;;0.00;0.00;;;;;;;34.93;22.95;101255.75;6097121;23;20033;-82
2023/05/20 11:16:10;;;;;;;0.00;0.00;;;;;;;35.58;21.57;101293.09;6122196;23;20322;-80
2023/05/20 11:18:36;;;;;;;0.00;0.00;;;;;;;35.71;21.35;101269.84;6096363;23;20017;-78
2023/05/20 11:21:02;;;;;;;0.00;0.00;;;;;;;35.81;20.54;101286.03;6075279;23;20006;-79
2023/05/20 11:23:28;;;;;;;0.00;0.00;;;;;;;36.18;20.16;101265.28;6099704;23;20017;-77
2023/05/20 11:25:55;;;;;;;0.00;0.00;;;;;;;37.25;20.24;101272.91;6121049;23;20020;-78
2023/05/20 11:28:22;;;;;;;0.00;0.00;;;;;;;37.74;19.18;101264.00;6120012;23;20014;-77
2023/05/20 11:30:49;;;;;;;0.00;0.00;;;;;;;38.02;19.15;101259.78;6117952;23;20087;-76
2023/05/20 11:33:16;;;;;;;0.00;0.00;;;;;;;38.70;18.18;101265.44;6121624;23;20009;-76
2023/05/20 11:35:52;;;;;;;0.00;0.00;;;;;;;39.48;18.04;101278.31;6119140;23;20804;-77
2023/05/20 11:38:22;;;;;;;0.00;0.00;;;;;;;39.51;17.79;101261.06;6123009;23;20386;-79
2023/05/20 11:40:52;;;;;;;0.00;0.00;;;;;;;39.17;17.07;101258.66;6145218;23;20016;-79
2023/05/20 11:43:18;;;;;;;0.00;0.00;;;;;;;39.65;17.25;101265.66;6120710;23;20453;-77
2023/05/20 11:45:53;;;;;;;0.00;0.00;;;;;;;40.72;17.37;101249.56;6114229;23;20089;-79
2023/05/20 11:48:19;;;;;;;0.00;0.00;;;;;;;42.23;16.19;101248.66;6118653;23;20006;-76
2023/05/20 11:50:47;;;;;;;0.00;0.00;;;;;;;43.75;15.98;101239.22;6114547;23;20086;-77
2023/05/20 11:53:17;;;;;;;0.00;0.00;;;;;;;45.42;14.89;101261.84;6144539;23;20095;-78
2023/05/20 11:55:52;;;;;;;0.00;0.00;;;;;;;46.05;14.31;101220.59;6093994;23;20581;-78
2023/05/20 11:58:22;;;;;;;0.00;0.00;;;;;;;46.62;13.28;101236.88;6118937;23;20010;-79
2023/05/20 12:00:55;;;;;;;0.00;0.00;;;;;;;47.00;13.48;101220.66;6119519;23;20005;-80
2023/05/20 12:03:21;;;;;;;0.00;0.00;;;;;;;47.33;12.68;101224.50;6115217;23;20093;-81
2023/05/20 12:05:50;;;;;;;0.00;0.00;;;;;;;47.90;13.08;101217.34;6119099;23;20021;-79
2023/05/20 12:08:16;;;;;;;0.00;0.00;;;;;;;48.06;12.29;101216.72;6138878;23;20038;-80
2023/05/20 12:10:51;;;;;;;;;;;;;;;;;;;;;
2023/05/20 12:16:46;;;;;;;0.00;0.00;;;;;;;43.99;13.74;101206.09;6149062;23;20377;-81
2023/05/20 12:19:21;;;;;;;0.00;0.00;;;;;;;44.82;13.24;101196.44;6118928;23;20013;-80
2023/05/20 12:21:54;;;;;;;0.00;0.00;;;;;;;45.06;12.60;101214.59;6095256;23;20033;-80
2023/05/20 12:43:57;;;;;;;;;;;;;;;;;;;;;
2023/05/20 12:46:46;;;;;;;0.00;0.00;;;;;;;49.13;10.14;101189.06;6238212;22;20834;-77
2023/05/20 12:49:19;;;;;;;0.00;0.00;;;;;;;50.18;10.08;101185.41;6116310;23;20013;-75
2023/05/20 12:52:10;;;;;;;0.00;0.00;;;;;;;50.00;9.02;101170.09;6096510;23;20005;-79
2023/05/20 12:55:12;;;;;;;0.00;0.00;;;;;;;49.09;9.64;101158.16;6144268;23;20058;-79
2023/05/20 12:57:42;;;;;;;0.00;0.00;;;;;;;47.16;10.59;101149.06;6141779;23;20871;-78
2023/05/20 13:00:28;;;;;;;0.00;0.00;;;;;;;48.11;10.41;101162.25;6146170;23;20017;-77
2023/05/20 13:02:55;;;;;;;0.00;0.00;;;;;;;49.45;9.82;101166.53;6092163;23;20029;-77
2023/05/20 13:05:21;;;;;;;0.00;0.00;;;;;;;45.90;10.98;101145.50;6246161;22;20009;-78
2023/05/20 13:07:50;;;;;;;0.00;0.00;;;;;;;43.48;12.26;101144.22;6222217;23;20009;-77
2023/05/20 13:10:16;;;;;;;0.00;0.00;;;;;;;45.59;11.84;101152.50;6116747;23;20009;-77
2023/05/20 13:12:44;;;;;;;0.00;0.00;;;;;;;47.69;11.28;101161.53;6221900;23;20009;-77
2023/05/20 13:15:20;;;;;;;0.00;0.00;;;;;;;44.79;10.97;101169.38;6115246;23;20002;-78
2023/05/20 13:18:16;;;;;;;0.00;0.00;;;;;;;41.39;12.91;101124.50;6119475;23;20013;-78
2023/05/20 13:20:45;;;;;;;0.00;0.00;;;;;;;44.56;12.33;101151.50;6145592;23;20008;-78
2023/05/20 13:23:41;;;;;;;;;;;;;;;;;;;;;
2023/05/20 13:26:07;;;;;;;0.00;0.00;;;;;;;43.44;11.76;101137.81;6122847;23;20085;-78
2023/05/20 13:28:55;;;;;;;0.00;0.00;;;;;;;42.24;13.12;101152.56;6115006;23;20008;-78
2023/05/20 13:31:36;;;;;;;0.00;0.00;;;;;;;43.19;12.23;101128.97;6118172;23;20002;-76
2023/05/20 13:34:09;;;;;;;0.00;0.00;;;;;;;42.17;12.56;101114.25;6114228;23;20012;-77
2023/05/20 13:36:37;;;;;;;0.00;0.00;;;;;;;39.76;13.80;101111.63;6115464;23;20005;-78
2023/05/20 13:39:05;;;;;;;0.00;0.00;;;;;;;38.02;14.78;101119.13;6114020;23;20021;-77
2023/05/20 13:41:31;;;;;;;0.00;0.00;;;;;;;39.22;14.64;101112.28;6250301;22;20006;-78
2023/05/20 13:44:01;;;;;;;0.00;0.00;;;;;;;41.05;13.71;101116.66;6196250;23;20105;-79
2023/05/20 13:46:27;;;;;;;0.00;0.00;;;;;;;41.75;13.17;101100.25;6098381;23;20035;-77
2023/05/20 13:48:53;;;;;;;0.00;0.00;;;;;;;38.24;14.52;101113.78;6143694;23;20005;-77
2023/05/20 13:51:21;;;;;;;0.00;0.00;;;;;;;36.70;16.11;101106.81;6145652;23;20399;-77
2023/05/20 13:53:56;;;;;;;0.00;0.00;;;;;;;38.66;15.74;101087.56;6120658;23;20055;-78
2023/05/20 13:56:38;;;;;;;;;;;;;;;;;;;;;
2023/05/20 13:59:04;;;;;;;0.00;0.00;;;;;;;41.95;12.66;101108.50;6119798;23;20093;-77
2023/05/20 14:01:32;;;;;;;0.00;0.00;;;;;;;41.56;12.59;101092.72;6249503;22;20032;-79
2023/05/20 14:07:28;;;;;;;0.00;0.00;;;;;;;42.04;12.34;101087.63;6122727;23;20024;-80
2023/05/20 14:09:56;;;;;;;0.00;0.00;;;;;;;42.30;12.42;101087.47;6118793;23;20005;-78
2023/05/20 14:12:29;;;;;;;0.00;0.00;;;;;;;40.91;12.88;101089.28;6120592;23;20085;-77
2023/05/20 14:14:55;;;;;;;;;;;;;;;40.79;13.02;101106.00;6116263;23;19998;-76
2023/05/20 14:17:20;;;;;;;0.00;0.00;;;;;;;39.42;13.92;101092.91;6121227;23;19904;-78
2023/05/20 14:19:46;;;;;;;0.00;0.00;;;;;;;41.16;13.36;101082.66;6146982;23;20324;-77
2023/05/20 14:22:13;;;;;;;0.00;0.00;;;;;;;40.17;12.53;101079.75;6246339;22;20008;-80